createdAt,value
2024-02-20T00:02:23.538Z,3.37
2024-02-20T00:04:51.247Z,2.03
2024-02-20T00:07:19.517Z,2.63
2024-02-20T00:09:46.644Z,1.52
2024-02-20T00:12:13.168Z,2.05
2024-02-20T00:14:39.675Z,2.47
2024-02-20T00:17:06.301Z,2.13
2024-02-20T00:19:33.216Z,2.75
2024-02-20T00:21:59.800Z,1.90
2024-02-20T00:24:26.439Z,2.83
2024-02-20T00:26:52.950Z,2.23
2024-02-20T00:29:19.403Z,2.10
2024-02-20T00:31:47.541Z,3.10
2024-02-20T00:34:14.107Z,2.03
2024-02-20T00:36:40.924Z,2.33
2024-02-20T00:39:08.212Z,2.27
2024-02-20T00:41:34.689Z,2.17
2024-02-20T00:44:01.205Z,2.97
2024-02-20T00:46:27.743Z,1.90
2024-02-20T00:48:56.647Z,3.17
2024-02-20T00:51:23.420Z,1.93
2024-02-20T00:53:50.507Z,1.80
2024-02-20T00:56:17.271Z,2.17
2024-02-20T00:58:44.942Z,1.83
2024-02-20T01:01:15.142Z,2.17
2024-02-20T01:03:44.324Z,1.80
2024-02-20T01:06:14.103Z,2.78
2024-02-20T01:08:41.122Z,1.95
2024-02-20T01:11:07.730Z,1.60
2024-02-20T01:13:34.950Z,1.70
2024-02-20T01:16:01.667Z,1.97
2024-02-20T01:18:28.308Z,2.15
2024-02-20T01:20:55.317Z,3.30
2024-02-20T01:23:21.928Z,2.20
2024-02-20T01:25:48.445Z,2.42
2024-02-20T01:28:15.219Z,1.80
2024-02-20T01:30:43.778Z,1.92
2024-02-20T01:33:10.408Z,2.30
2024-02-20T01:35:38.813Z,2.38
2024-02-20T01:38:06.088Z,2.17
2024-02-20T01:40:32.905Z,2.63
2024-02-20T01:43:06.058Z,1.92
2024-02-20T01:45:33.086Z,2.00
2024-02-20T01:48:02.710Z,2.05
2024-02-20T01:50:36.234Z,1.60
2024-02-20T01:53:04.002Z,2.70
2024-02-20T01:55:30.891Z,1.65
2024-02-20T01:57:57.753Z,3.03
2024-02-20T02:00:24.288Z,2.00
2024-02-20T02:02:51.005Z,2.00
2024-02-20T02:05:17.994Z,2.33
2024-02-20T02:07:44.737Z,1.60
2024-02-20T02:10:11.426Z,2.83
2024-02-20T02:12:38.094Z,1.98
2024-02-20T02:15:04.857Z,2.30
2024-02-20T02:17:31.369Z,2.53
2024-02-20T02:19:57.955Z,2.60
2024-02-20T02:22:24.479Z,2.22
2024-02-20T02:24:51.081Z,1.73
2024-02-20T02:27:17.675Z,1.60
2024-02-20T02:29:44.304Z,1.83
2024-02-20T02:32:10.801Z,2.67
2024-02-20T02:34:37.430Z,2.60
2024-02-20T02:37:04.181Z,1.92
2024-02-20T02:39:30.719Z,1.73
2024-02-20T02:41:57.241Z,2.70
2024-02-20T02:44:24.778Z,2.22
2024-02-20T02:46:51.309Z,1.95
2024-02-20T02:49:18.169Z,1.90
2024-02-20T02:51:45.632Z,1.95
2024-02-20T02:54:12.279Z,1.70
2024-02-20T02:56:38.883Z,2.00
2024-02-20T02:59:05.953Z,1.90
2024-02-20T03:01:32.763Z,2.05
2024-02-20T03:03:59.970Z,1.60
2024-02-20T03:06:27.000Z,2.27
2024-02-20T03:08:53.569Z,2.30
2024-02-20T03:11:20.096Z,1.98
2024-02-20T03:13:46.757Z,2.20
2024-02-20T03:16:14.623Z,1.95
2024-02-20T03:18:43.553Z,2.10
2024-02-20T03:21:10.186Z,2.58
2024-02-20T03:23:36.813Z,3.05
2024-02-20T03:26:04.705Z,1.58
2024-02-20T03:28:31.407Z,1.88
2024-02-20T03:30:58.064Z,1.97
2024-02-20T03:33:27.110Z,1.88
2024-02-20T03:35:53.855Z,2.08
2024-02-20T03:38:21.519Z,2.10
2024-02-20T03:40:48.099Z,2.08
2024-02-20T03:43:14.593Z,1.60
2024-02-20T03:45:41.223Z,1.33
2024-02-20T03:48:08.058Z,2.30
2024-02-20T03:50:35.863Z,2.35
2024-02-20T03:53:05.730Z,1.42
2024-02-20T03:55:34.378Z,1.30
2024-02-20T03:58:01.144Z,2.45
2024-02-20T04:00:27.685Z,1.65
2024-02-20T04:02:55.501Z,1.77
2024-02-20T04:05:22.024Z,2.15
2024-02-20T04:07:48.588Z,1.83
2024-02-20T04:10:16.408Z,1.55
2024-02-20T04:12:44.194Z,1.23
2024-02-20T04:15:13.689Z,1.75
2024-02-20T04:17:40.551Z,1.70
2024-02-20T04:20:10.223Z,1.40
2024-02-20T04:22:41.164Z,2.22
2024-02-20T04:25:09.320Z,1.63
2024-02-20T04:27:39.298Z,1.50
2024-02-20T04:30:08.405Z,1.63
2024-02-20T04:32:35.786Z,1.67
2024-02-20T04:35:02.597Z,1.98
2024-02-20T04:37:29.503Z,1.92
2024-02-20T04:39:56.678Z,1.70
2024-02-20T04:42:23.991Z,1.90
2024-02-20T04:44:51.606Z,1.90
2024-02-20T04:47:20.899Z,1.95
2024-02-20T04:49:48.583Z,1.88
2024-02-20T04:52:15.941Z,2.08
2024-02-20T04:54:42.538Z,3.53
2024-02-20T04:57:09.286Z,2.50
2024-02-20T04:59:35.726Z,1.90
2024-02-20T05:02:03.349Z,2.38
2024-02-20T05:04:30.134Z,2.72
2024-02-20T05:06:56.773Z,2.15
2024-02-20T05:09:23.294Z,1.57
2024-02-20T05:11:49.808Z,1.95
2024-02-20T05:14:16.283Z,1.92
2024-02-20T05:16:44.902Z,2.40
2024-02-20T05:19:11.894Z,2.45
2024-02-20T05:21:38.458Z,2.13
2024-02-20T05:24:05.208Z,1.70
2024-02-20T05:26:31.792Z,2.55
2024-02-20T05:28:58.263Z,2.20
2024-02-20T05:31:30.691Z,2.65
2024-02-20T05:34:02.179Z,2.08
2024-02-20T05:36:34.625Z,3.38
2024-02-20T05:39:03.002Z,1.80
2024-02-20T05:41:30.820Z,2.30
2024-02-20T05:43:59.052Z,2.15
2024-02-20T05:46:28.002Z,1.87
2024-02-20T05:48:55.765Z,2.88
2024-02-20T05:51:24.515Z,2.97
2024-02-20T05:53:51.386Z,2.50
2024-02-20T05:56:18.342Z,2.05
2024-02-20T05:58:44.839Z,1.77
2024-02-20T06:01:12.633Z,2.03
2024-02-20T06:03:39.474Z,2.33
2024-02-20T06:06:08.564Z,2.35
2024-02-20T06:08:36.630Z,2.45
2024-02-20T06:11:03.331Z,2.70
2024-02-20T06:13:29.845Z,3.25
2024-02-20T06:15:56.340Z,2.90
2024-02-20T06:18:22.878Z,2.20
2024-02-20T06:20:50.149Z,3.17
2024-02-20T06:23:16.663Z,2.20
2024-02-20T06:25:44.161Z,2.63
2024-02-20T06:28:11.568Z,3.20
2024-02-20T06:30:38.109Z,2.55
2024-02-20T06:33:04.987Z,2.50
2024-02-20T06:35:33.434Z,2.37
2024-02-20T06:38:00.344Z,2.20
2024-02-20T06:40:28.356Z,3.03
2024-02-20T06:42:55.067Z,2.50
2024-02-20T06:45:23.733Z,2.88
2024-02-20T06:47:50.543Z,3.13
2024-02-20T06:50:20.140Z,3.05
2024-02-20T06:52:47.003Z,2.72
2024-02-20T06:55:14.509Z,2.63
2024-02-20T06:57:41.306Z,2.78
2024-02-20T07:00:14.040Z,2.80
2024-02-20T07:02:43.927Z,2.60
2024-02-20T07:05:19.939Z,4.05
2024-02-20T07:07:47.472Z,3.42
2024-02-20T07:10:16.491Z,3.25
2024-02-20T07:12:43.217Z,3.07
2024-02-20T07:15:14.400Z,2.97
2024-02-20T07:17:40.953Z,2.60
2024-02-20T07:20:12.640Z,2.85
2024-02-20T07:22:41.005Z,2.92
2024-02-20T07:25:11.611Z,2.77
2024-02-20T07:27:40.256Z,3.08
2024-02-20T07:30:14.008Z,2.95
2024-02-20T07:32:42.156Z,3.45
2024-02-20T07:35:13.760Z,3.17
2024-02-20T07:37:41.694Z,3.03
2024-02-20T07:40:15.073Z,2.80
2024-02-20T07:42:41.720Z,2.78
2024-02-20T07:45:10.310Z,2.83
2024-02-20T07:47:37.240Z,2.53
2024-02-20T07:50:06.989Z,2.83
2024-02-20T07:52:34.609Z,3.00
2024-02-20T07:55:01.514Z,2.92
2024-02-20T07:57:28.272Z,2.63
2024-02-20T07:59:54.856Z,2.80
2024-02-20T08:02:21.676Z,3.23
2024-02-20T08:04:49.516Z,3.15
2024-02-20T08:07:16.357Z,2.60
2024-02-20T08:09:43.185Z,2.08
2024-02-20T08:12:12.187Z,5.35
2024-02-20T08:14:38.965Z,3.17
2024-02-20T08:17:05.710Z,3.05
2024-02-20T08:19:32.656Z,3.17
2024-02-20T08:21:59.570Z,2.65
2024-02-20T08:24:26.207Z,3.03
2024-02-20T08:26:54.941Z,3.30
2024-02-20T08:29:21.465Z,3.28
2024-02-20T08:31:48.423Z,2.92
2024-02-20T08:34:15.681Z,3.30
2024-02-20T08:36:42.322Z,3.30
2024-02-20T08:39:08.830Z,4.07
2024-02-20T08:41:35.534Z,3.33
2024-02-20T08:44:02.181Z,3.88
2024-02-20T08:46:29.335Z,3.67
2024-02-20T08:48:56.002Z,3.72
2024-02-20T08:51:22.591Z,3.47
2024-02-20T08:53:49.067Z,4.10
2024-02-20T08:56:15.530Z,4.57
2024-02-20T08:58:42.760Z,3.45
2024-02-20T09:01:10.026Z,3.40
2024-02-20T09:03:39.710Z,3.60
2024-02-20T09:06:07.050Z,3.30
2024-02-20T09:08:33.773Z,3.25
2024-02-20T09:11:05.569Z,3.90
2024-02-20T09:13:35.732Z,3.15
2024-02-20T09:16:03.805Z,3.60
2024-02-20T09:18:37.563Z,3.20
2024-02-20T09:21:05.530Z,4.18
2024-02-20T09:23:38.773Z,4.03
2024-02-20T09:26:07.139Z,3.35
2024-02-20T09:28:33.828Z,4.23
2024-02-20T09:31:03.203Z,3.85
2024-02-20T09:33:34.049Z,3.90
2024-02-20T09:36:01.324Z,3.85
2024-02-20T09:38:28.011Z,3.78
2024-02-20T09:40:56.876Z,2.97
2024-02-20T09:43:26.758Z,3.33
2024-02-20T09:45:57.152Z,3.60
2024-02-20T09:48:25.116Z,3.50
2024-02-20T09:50:55.465Z,3.90
2024-02-20T09:53:23.785Z,3.60
2024-02-20T09:55:56.485Z,3.38
2024-02-20T09:58:23.600Z,4.32
2024-02-20T10:00:58.315Z,4.22
2024-02-20T10:03:33.626Z,3.10
2024-02-20T10:06:03.192Z,3.43
2024-02-20T10:08:29.856Z,3.90
2024-02-20T10:11:05.647Z,3.78
2024-02-20T10:13:43.434Z,3.45
2024-02-20T10:16:10.186Z,3.63
2024-02-20T10:18:36.816Z,3.47
2024-02-20T10:21:06.521Z,3.33
2024-02-20T10:23:33.012Z,3.53
2024-02-20T10:26:02.724Z,3.58
2024-02-20T10:28:29.451Z,3.78
2024-02-20T10:31:03.032Z,3.10
2024-02-20T10:33:32.416Z,4.10
2024-02-20T10:36:04.535Z,4.35
2024-02-20T10:38:31.407Z,4.05
2024-02-20T10:41:03.126Z,3.50
2024-02-20T10:43:30.509Z,3.63
2024-02-20T10:45:59.585Z,3.92
2024-02-20T10:48:31.857Z,3.15
2024-02-20T10:51:03.359Z,4.10
2024-02-20T10:53:30.920Z,3.50
2024-02-20T10:56:01.031Z,4.03
2024-02-20T10:58:29.146Z,3.97
2024-02-20T11:00:59.563Z,3.50
2024-02-20T11:03:31.154Z,3.53
2024-02-20T11:06:04.570Z,3.65
2024-02-20T11:08:32.284Z,3.08
2024-02-20T11:11:17.730Z,3.58
2024-02-20T11:13:45.178Z,3.13
2024-02-20T11:16:12.600Z,3.22
2024-02-20T11:18:39.942Z,3.28
2024-02-20T11:21:09.387Z,3.75
2024-02-20T11:23:38.710Z,2.60
2024-02-20T11:26:12.286Z,3.50
2024-02-20T11:28:40.280Z,3.65
2024-02-20T11:31:08.389Z,3.25
2024-02-20T11:33:36.088Z,2.97
2024-02-20T11:36:06.189Z,3.65
2024-02-20T11:38:32.661Z,3.45
2024-02-20T11:41:04.998Z,4.32
2024-02-20T11:43:31.519Z,3.22
2024-02-20T11:46:02.251Z,3.40
2024-02-20T11:48:30.194Z,3.33
2024-02-20T11:50:59.377Z,3.30
2024-02-20T11:53:26.997Z,3.70
2024-02-20T11:56:00.780Z,2.53
2024-02-20T11:58:29.763Z,3.60
2024-02-20T12:01:05.566Z,3.10
2024-02-20T12:03:35.415Z,2.78
2024-02-20T12:06:05.688Z,3.03
2024-02-20T12:08:42.132Z,4.07
2024-02-20T12:11:10.615Z,2.95
2024-02-20T12:13:37.344Z,4.03
2024-02-20T12:16:04.200Z,3.58
2024-02-20T12:18:33.476Z,3.30
2024-02-20T12:21:10.422Z,3.20
2024-02-20T12:23:41.717Z,3.60
2024-02-20T12:26:09.676Z,2.90
2024-02-20T12:28:37.502Z,3.53
2024-02-20T12:31:09.682Z,3.95
2024-02-20T12:33:37.322Z,4.45
2024-02-20T12:36:04.434Z,3.70
2024-02-20T12:38:30.964Z,3.22
2024-02-20T12:40:57.645Z,3.83
2024-02-20T12:43:24.642Z,3.67
2024-02-20T12:45:52.335Z,4.18
2024-02-20T12:48:19.049Z,3.85
2024-02-20T12:50:50.685Z,3.47
2024-02-20T12:53:17.607Z,3.83
2024-02-20T12:55:46.677Z,3.45
2024-02-20T12:58:13.934Z,4.15
2024-02-20T13:00:49.854Z,2.92
2024-02-20T13:03:18.722Z,2.65
2024-02-20T13:05:49.035Z,3.70
2024-02-20T13:08:15.817Z,2.97
2024-02-20T13:10:46.700Z,2.80
2024-02-20T13:13:14.582Z,2.37
2024-02-20T13:15:43.769Z,2.85
2024-02-20T13:18:10.292Z,2.05
2024-02-20T13:20:39.238Z,3.50
2024-02-20T13:23:05.861Z,3.70
2024-02-20T13:25:34.238Z,2.72
2024-02-20T13:28:01.514Z,2.20
2024-02-20T13:30:30.046Z,2.22
2024-02-20T13:32:58.662Z,2.15
2024-02-20T13:35:25.513Z,2.38
2024-02-20T13:37:52.224Z,2.20
2024-02-20T13:40:19.764Z,2.55
2024-02-20T13:42:46.783Z,2.88
2024-02-20T13:45:18.626Z,2.63
2024-02-20T13:47:45.911Z,3.05
2024-02-20T13:50:13.956Z,2.83
2024-02-20T13:52:40.686Z,3.20
2024-02-20T13:55:09.121Z,2.58
2024-02-20T13:57:36.899Z,3.42
2024-02-20T14:00:07.911Z,2.95
2024-02-20T14:02:35.172Z,3.13
2024-02-20T14:05:03.161Z,3.20
2024-02-20T14:07:31.248Z,2.60
2024-02-20T14:09:57.787Z,3.08
2024-02-20T14:12:25.174Z,2.65
2024-02-20T14:14:53.026Z,5.57
2024-02-20T14:17:21.274Z,3.35
2024-02-20T14:19:47.777Z,3.90
2024-02-20T14:22:15.193Z,3.92
2024-02-20T14:24:41.908Z,4.13
2024-02-20T14:27:08.474Z,3.90
2024-02-20T14:29:36.947Z,3.75
2024-02-20T14:32:04.244Z,4.95
2024-02-20T14:34:31.127Z,4.78
2024-02-20T14:36:58.410Z,4.78
2024-02-20T14:39:24.970Z,5.00
2024-02-20T14:41:51.798Z,5.32
2024-02-20T14:44:18.575Z,5.68
2024-02-20T14:46:45.413Z,5.20
2024-02-20T14:49:15.167Z,5.35
2024-02-20T14:51:42.372Z,5.70
2024-02-20T14:54:09.190Z,7.25
2024-02-20T14:56:35.673Z,7.25
2024-02-20T14:59:02.412Z,7.75
2024-02-20T15:01:29.891Z,7.68
2024-02-20T15:03:57.573Z,7.50
2024-02-20T15:06:24.615Z,6.90
2024-02-20T15:08:51.545Z,7.82
2024-02-20T15:11:21.404Z,7.75
2024-02-20T15:13:48.663Z,6.70
2024-02-20T15:16:15.212Z,7.13
2024-02-20T15:18:41.746Z,7.15
2024-02-20T15:21:09.122Z,7.30
2024-02-20T15:23:35.764Z,7.10
2024-02-20T15:26:07.358Z,7.45
2024-02-20T15:28:34.841Z,8.47
2024-02-20T15:31:05.280Z,7.47
2024-02-20T15:33:32.317Z,7.70
2024-02-20T15:36:03.715Z,7.72
2024-02-20T15:38:30.274Z,8.15
2024-02-20T15:40:56.898Z,7.40
2024-02-20T15:43:25.155Z,8.13
2024-02-20T15:45:52.941Z,8.00
2024-02-20T15:48:20.698Z,6.85
2024-02-20T15:50:56.090Z,6.65
2024-02-20T15:53:23.557Z,7.47
2024-02-20T15:55:52.872Z,7.10
2024-02-20T15:58:23.930Z,4.70
2024-02-20T16:01:01.282Z,5.70
2024-02-20T16:03:27.960Z,5.80
2024-02-20T16:05:56.195Z,5.17
2024-02-20T16:08:22.768Z,5.20
2024-02-20T16:11:02.727Z,5.25
2024-02-20T16:13:29.413Z,3.72
2024-02-20T16:16:00.436Z,5.35
2024-02-20T16:18:29.064Z,5.03
2024-02-20T16:21:02.489Z,4.65
2024-02-20T16:23:29.395Z,5.55
2024-02-20T16:26:04.194Z,6.30
2024-02-20T16:28:31.355Z,5.22
2024-02-20T16:31:00.788Z,4.87
2024-02-20T16:33:28.781Z,5.68
2024-02-20T16:35:58.482Z,5.40
2024-02-20T16:38:28.907Z,5.78
2024-02-20T16:40:58.433Z,5.95
2024-02-20T16:43:25.088Z,6.00
2024-02-20T16:45:51.631Z,6.72
2024-02-20T16:48:18.304Z,6.25
2024-02-20T16:50:47.626Z,6.63
2024-02-20T16:53:16.354Z,6.10
2024-02-20T16:55:43.903Z,6.27
2024-02-20T16:58:11.204Z,6.95
2024-02-20T17:00:39.350Z,7.00
2024-02-20T17:03:08.091Z,7.18
2024-02-20T17:05:36.223Z,6.70
2024-02-20T17:08:05.758Z,6.90
2024-02-20T17:10:36.820Z,7.70
2024-02-20T17:13:04.655Z,7.60
2024-02-20T17:15:31.145Z,6.38
2024-02-20T17:17:57.718Z,5.97
2024-02-20T17:20:24.349Z,7.27
2024-02-20T17:22:51.300Z,6.35
2024-02-20T17:25:18.055Z,6.63
2024-02-20T17:27:44.539Z,6.30
2024-02-20T17:30:11.576Z,5.93
2024-02-20T17:32:38.135Z,7.60
2024-02-20T17:35:05.283Z,6.63
2024-02-20T17:37:32.019Z,7.38
2024-02-20T17:40:00.291Z,6.90
2024-02-20T17:42:26.760Z,6.05
2024-02-20T17:44:53.539Z,6.20
2024-02-20T17:47:20.144Z,7.13
2024-02-20T17:49:46.755Z,7.18
2024-02-20T17:52:14.900Z,6.28
2024-02-20T17:54:41.464Z,6.35
2024-02-20T17:57:07.968Z,6.37
2024-02-20T17:59:34.441Z,5.38
2024-02-20T18:02:00.888Z,7.15
2024-02-20T18:04:31.747Z,6.43
2024-02-20T18:06:58.457Z,8.00
2024-02-20T18:09:25.025Z,5.97
2024-02-20T18:11:51.845Z,6.60
2024-02-20T18:14:18.430Z,6.72
2024-02-20T18:16:45.773Z,7.13
2024-02-20T18:19:14.146Z,5.57
2024-02-20T18:21:40.738Z,6.03
2024-02-20T18:24:07.705Z,5.65
2024-02-20T18:26:34.187Z,5.45
2024-02-20T18:29:00.720Z,4.85
2024-02-20T18:31:27.327Z,5.95
2024-02-20T18:33:53.871Z,6.07
2024-02-20T18:36:20.336Z,7.03
2024-02-20T18:38:47.057Z,5.47
2024-02-20T18:41:13.913Z,5.45
2024-02-20T18:43:40.661Z,5.57
2024-02-20T18:46:07.229Z,6.23
2024-02-20T18:48:33.949Z,5.50
2024-02-20T18:51:00.464Z,5.78
2024-02-20T18:53:26.934Z,5.75
2024-02-20T18:55:54.660Z,5.75
2024-02-20T18:58:22.210Z,5.43
2024-02-20T19:00:49.066Z,6.75
2024-02-20T19:03:16.199Z,4.85
2024-02-20T19:05:42.844Z,4.63
2024-02-20T19:08:09.527Z,4.82
2024-02-20T19:10:37.452Z,4.53
2024-02-20T19:13:05.016Z,5.07
2024-02-20T19:15:33.034Z,5.47
2024-02-20T19:17:59.811Z,4.72
2024-02-20T19:20:26.425Z,4.40
2024-02-20T19:22:52.978Z,4.83
2024-02-20T19:25:19.578Z,5.05
2024-02-20T19:27:48.973Z,5.45
2024-02-20T19:30:16.997Z,5.03
2024-02-20T19:32:44.536Z,5.30
2024-02-20T19:35:11.289Z,5.50
2024-02-20T19:37:37.965Z,5.20
2024-02-20T19:40:04.892Z,6.57
2024-02-20T19:42:31.458Z,5.28
2024-02-20T19:44:59.306Z,4.63
2024-02-20T19:47:25.874Z,5.63
2024-02-20T19:49:52.488Z,5.60
2024-02-20T19:52:19.107Z,5.05
2024-02-20T19:54:46.120Z,4.63
2024-02-20T19:57:14.221Z,5.35
2024-02-20T19:59:41.339Z,3.93
2024-02-20T20:02:07.975Z,4.50
2024-02-20T20:04:34.634Z,4.97
2024-02-20T20:07:01.308Z,4.35
2024-02-20T20:09:27.909Z,4.90
2024-02-20T20:11:54.622Z,4.83
2024-02-20T20:14:23.966Z,4.90
2024-02-20T20:16:50.726Z,5.18
2024-02-20T20:19:17.317Z,4.68
2024-02-20T20:21:46.565Z,5.43
2024-02-20T20:24:17.910Z,5.17
2024-02-20T20:26:46.586Z,4.05
2024-02-20T20:29:13.528Z,4.40
2024-02-20T20:31:41.349Z,4.93
2024-02-20T20:34:08.205Z,5.22
2024-02-20T20:36:36.812Z,4.83
2024-02-20T20:39:05.965Z,5.47
2024-02-20T20:41:34.714Z,4.43
2024-02-20T20:44:01.519Z,4.85
2024-02-20T20:46:28.125Z,3.97
2024-02-20T20:48:54.604Z,5.30
2024-02-20T20:51:21.073Z,4.43
2024-02-20T20:53:47.554Z,5.05
2024-02-20T20:56:16.378Z,5.63
2024-02-20T20:58:42.911Z,4.90
2024-02-20T21:01:09.657Z,5.70
2024-02-20T21:03:36.338Z,5.13
2024-02-20T21:06:03.234Z,4.72
2024-02-20T21:08:30.173Z,5.38
2024-02-20T21:10:56.843Z,4.20
2024-02-20T21:13:23.533Z,5.53
2024-02-20T21:15:50.504Z,5.50
2024-02-20T21:18:17.217Z,4.82
2024-02-20T21:20:44.940Z,4.70
2024-02-20T21:23:15.810Z,5.03
2024-02-20T21:25:42.675Z,4.77
2024-02-20T21:28:09.319Z,4.97
2024-02-20T21:30:35.938Z,5.03
2024-02-20T21:33:02.580Z,5.70
2024-02-20T21:35:30.143Z,4.30
2024-02-20T21:37:57.297Z,5.33
2024-02-20T21:40:24.092Z,4.57
2024-02-20T21:42:50.681Z,5.00
2024-02-20T21:45:17.299Z,5.07
2024-02-20T21:47:43.861Z,5.15
2024-02-20T21:50:10.631Z,5.13
2024-02-20T21:52:37.229Z,5.57
2024-02-20T21:55:03.991Z,5.75
2024-02-20T21:57:30.436Z,5.28
2024-02-20T21:59:56.933Z,6.47
2024-02-20T22:02:27.132Z,5.43
2024-02-20T22:04:54.146Z,4.63
2024-02-20T22:07:20.712Z,5.10
2024-02-20T22:09:47.451Z,5.10
2024-02-20T22:12:14.074Z,4.72
2024-02-20T22:14:40.612Z,4.73
2024-02-20T22:17:07.110Z,5.47
2024-02-20T22:19:33.709Z,4.85
2024-02-20T22:22:00.313Z,4.72
2024-02-20T22:24:26.811Z,5.05
2024-02-20T22:26:53.397Z,4.60
2024-02-20T22:29:19.908Z,4.68
2024-02-20T22:31:46.567Z,4.25
2024-02-20T22:34:13.244Z,4.10
2024-02-20T22:36:39.850Z,4.68
2024-02-20T22:39:06.390Z,4.40
2024-02-20T22:41:32.880Z,4.60
2024-02-20T22:43:59.528Z,4.30
2024-02-20T22:46:26.254Z,3.78
2024-02-20T22:48:52.780Z,3.92
2024-02-20T22:51:19.311Z,4.27
2024-02-20T22:53:45.779Z,3.67
2024-02-20T22:56:12.373Z,3.70
2024-02-20T22:58:38.960Z,3.75
2024-02-20T23:01:05.792Z,3.50
2024-02-20T23:03:32.475Z,2.70
2024-02-20T23:05:59.131Z,4.13
2024-02-20T23:08:26.285Z,2.70
2024-02-20T23:10:52.834Z,2.97
2024-02-20T23:13:19.361Z,2.70
2024-02-20T23:15:46.229Z,3.27
2024-02-20T23:18:12.827Z,3.40
2024-02-20T23:20:39.414Z,2.80
2024-02-20T23:23:05.981Z,2.75
2024-02-20T23:25:32.494Z,3.28
2024-02-20T23:27:59.011Z,2.43
2024-02-20T23:30:25.516Z,3.40
2024-02-20T23:32:52.063Z,2.83
2024-02-20T23:35:18.738Z,3.00
2024-02-20T23:37:48.406Z,2.88
2024-02-20T23:40:16.371Z,2.57
2024-02-20T23:42:43.960Z,3.00
2024-02-20T23:45:12.186Z,2.90
2024-02-20T23:47:39.015Z,3.03
2024-02-20T23:50:06.501Z,2.63
2024-02-20T23:52:33.201Z,2.67
2024-02-20T23:54:59.827Z,3.30
2024-02-20T23:57:26.323Z,2.67
2024-02-20T23:59:56.299Z,2.70
